sensor_id;sensor_type;location;lat;lon;timestamp;P1;durP1;ratioP1;P2;durP2;ratioP2
63320;SDS011;49449;48.800;9.534;2022-10-16T00:05:38;2.25;;;1.95;;
63320;SDS011;49449;48.800;9.534;2022-10-16T00:10:41;2.40;;;2.20;;
63320;SDS011;49449;48.800;9.534;2022-10-16T00:13:08;2.63;;;1.70;;
63320;SDS011;49449;48.800;9.534;2022-10-16T00:15:36;2.15;;;1.95;;
63320;SDS011;49449;48.800;9.534;2022-10-16T00:18:05;6.82;;;2.25;;
63320;SDS011;49449;48.800;9.534;2022-10-16T00:20:33;2.75;;;2.53;;
63320;SDS011;49449;48.800;9.534;2022-10-16T00:23:03;1.95;;;1.70;;
63320;SDS011;49449;48.800;9.534;2022-10-16T00:25:34;2.65;;;1.98;;
63320;SDS011;49449;48.800;9.534;2022-10-16T00:28:03;1.85;;;1.75;;
63320;SDS011;49449;48.800;9.534;2022-10-16T00:30:31;3.70;;;2.15;;
63320;SDS011;49449;48.800;9.534;2022-10-16T00:32:59;3.03;;;2.08;;
63320;SDS011;49449;48.800;9.534;2022-10-16T00:35:27;2.75;;;2.13;;
63320;SDS011;49449;48.800;9.534;2022-10-16T00:37:55;3.30;;;2.50;;
63320;SDS011;49449;48.800;9.534;2022-10-16T00:40:23;4.03;;;2.22;;
63320;SDS011;49449;48.800;9.534;2022-10-16T00:42:54;2.80;;;2.60;;
63320;SDS011;49449;48.800;9.534;2022-10-16T00:49:23;5.75;;;1.95;;
63320;SDS011;49449;48.800;9.534;2022-10-16T00:54:38;3.58;;;2.10;;
63320;SDS011;49449;48.800;9.534;2022-10-16T00:57:08;3.20;;;2.00;;
63320;SDS011;49449;48.800;9.534;2022-10-16T00:59:37;2.15;;;1.90;;
63320;SDS011;49449;48.800;9.534;2022-10-16T01:02:07;4.38;;;2.10;;
63320;SDS011;49449;48.800;9.534;2022-10-16T01:04:37;2.30;;;2.03;;
63320;SDS011;49449;48.800;9.534;2022-10-16T01:07:10;5.05;;;2.63;;
63320;SDS011;49449;48.800;9.534;2022-10-16T01:09:45;2.88;;;2.67;;
63320;SDS011;49449;48.800;9.534;2022-10-16T01:12:21;3.60;;;2.30;;
63320;SDS011;49449;48.800;9.534;2022-10-16T01:14:58;8.82;;;2.40;;
63320;SDS011;49449;48.800;9.534;2022-10-16T01:17:33;4.50;;;2.30;;
63320;SDS011;49449;48.800;9.534;2022-10-16T01:20:10;3.00;;;2.17;;
63320;SDS011;49449;48.800;9.534;2022-10-16T01:22:47;2.42;;;1.90;;
63320;SDS011;49449;48.800;9.534;2022-10-16T01:25:25;2.10;;;1.88;;
63320;SDS011;49449;48.800;9.534;2022-10-16T01:28:00;3.05;;;2.15;;
63320;SDS011;49449;48.800;9.534;2022-10-16T01:30:30;2.40;;;2.10;;
63320;SDS011;49449;48.800;9.534;2022-10-16T01:33:02;3.38;;;2.58;;
63320;SDS011;49449;48.800;9.534;2022-10-16T01:35:33;2.40;;;2.20;;
63320;SDS011;49449;48.800;9.534;2022-10-16T01:38:05;5.28;;;2.10;;
63320;SDS011;49449;48.800;9.534;2022-10-16T01:40:37;2.47;;;1.83;;
63320;SDS011;49449;48.800;9.534;2022-10-16T01:43:10;4.18;;;2.30;;
63320;SDS011;49449;48.800;9.534;2022-10-16T01:45:42;3.90;;;2.20;;
63320;SDS011;49449;48.800;9.534;2022-10-16T01:48:12;4.88;;;1.92;;
63320;SDS011;49449;48.800;9.534;2022-10-16T01:50:44;3.58;;;1.88;;
63320;SDS011;49449;48.800;9.534;2022-10-16T01:53:19;4.00;;;2.10;;
63320;SDS011;49449;48.800;9.534;2022-10-16T01:55:47;4.60;;;1.90;;
63320;SDS011;49449;48.800;9.534;2022-10-16T01:58:20;2.72;;;2.00;;
63320;SDS011;49449;48.800;9.534;2022-10-16T02:00:50;2.53;;;1.88;;
63320;SDS011;49449;48.800;9.534;2022-10-16T02:03:21;6.63;;;2.40;;
63320;SDS011;49449;48.800;9.534;2022-10-16T02:05:49;3.40;;;1.83;;
63320;SDS011;49449;48.800;9.534;2022-10-16T02:08:19;2.65;;;1.80;;
63320;SDS011;49449;48.800;9.534;2022-10-16T02:10:49;3.95;;;2.25;;
63320;SDS011;49449;48.800;9.534;2022-10-16T02:13:21;3.38;;;2.40;;
63320;SDS011;49449;48.800;9.534;2022-10-16T02:15:53;3.55;;;2.20;;
63320;SDS011;49449;48.800;9.534;2022-10-16T02:18:21;1.77;;;1.60;;
63320;SDS011;49449;48.800;9.534;2022-10-16T02:20:50;3.03;;;1.55;;
63320;SDS011;49449;48.800;9.534;2022-10-16T02:23:24;3.10;;;2.20;;
63320;SDS011;49449;48.800;9.534;2022-10-16T02:26:00;2.33;;;2.10;;
63320;SDS011;49449;48.800;9.534;2022-10-16T02:28:34;2.47;;;2.00;;
63320;SDS011;49449;48.800;9.534;2022-10-16T02:31:09;2.63;;;1.83;;
63320;SDS011;49449;48.800;9.534;2022-10-16T02:33:39;3.03;;;2.25;;
63320;SDS011;49449;48.800;9.534;2022-10-16T02:36:09;3.88;;;1.98;;
63320;SDS011;49449;48.800;9.534;2022-10-16T02:38:37;2.28;;;2.00;;
63320;SDS011;49449;48.800;9.534;2022-10-16T02:41:07;1.88;;;1.65;;
63320;SDS011;49449;48.800;9.534;2022-10-16T02:43:37;1.83;;;1.73;;
63320;SDS011;49449;48.800;9.534;2022-10-16T02:46:04;1.92;;;1.70;;
63320;SDS011;49449;48.800;9.534;2022-10-16T02:48:32;2.95;;;2.30;;
63320;SDS011;49449;48.800;9.534;2022-10-16T02:51:01;3.63;;;1.90;;
63320;SDS011;49449;48.800;9.534;2022-10-16T02:53:28;1.70;;;1.50;;
63320;SDS011;49449;48.800;9.534;2022-10-16T02:55:56;1.67;;;1.58;;
63320;SDS011;49449;48.800;9.534;2022-10-16T02:58:24;4.13;;;2.05;;
63320;SDS011;49449;48.800;9.534;2022-10-16T03:00:53;3.70;;;1.83;;
63320;SDS011;49449;48.800;9.534;2022-10-16T03:03:22;2.75;;;2.17;;
63320;SDS011;49449;48.800;9.534;2022-10-16T03:05:50;2.40;;;2.05;;
63320;SDS011;49449;48.800;9.534;2022-10-16T03:08:17;2.30;;;1.60;;
63320;SDS011;49449;48.800;9.534;2022-10-16T03:10:49;4.88;;;1.73;;
63320;SDS011;49449;48.800;9.534;2022-10-16T03:13:17;2.60;;;1.65;;
63320;SDS011;49449;48.800;9.534;2022-10-16T03:15:46;4.18;;;2.00;;
63320;SDS011;49449;48.800;9.534;2022-10-16T03:18:15;1.98;;;1.83;;
63320;SDS011;49449;48.800;9.534;2022-10-16T03:20:43;2.65;;;1.60;;
63320;SDS011;49449;48.800;9.534;2022-10-16T03:23:11;2.55;;;1.80;;
63320;SDS011;49449;48.800;9.534;2022-10-16T03:25:39;2.80;;;1.98;;
63320;SDS011;49449;48.800;9.534;2022-10-16T03:28:07;2.08;;;1.92;;
63320;SDS011;49449;48.800;9.534;2022-10-16T03:30:34;2.45;;;1.85;;
63320;SDS011;49449;48.800;9.534;2022-10-16T03:33:02;1.95;;;1.75;;
63320;SDS011;49449;48.800;9.534;2022-10-16T03:35:33;2.10;;;1.90;;
63320;SDS011;49449;48.800;9.534;2022-10-16T03:38:00;4.97;;;1.90;;
63320;SDS011;49449;48.800;9.534;2022-10-16T03:40:28;2.08;;;1.98;;
63320;SDS011;49449;48.800;9.534;2022-10-16T03:42:57;2.60;;;1.60;;
63320;SDS011;49449;48.800;9.534;2022-10-16T03:45:27;1.92;;;1.80;;
63320;SDS011;49449;48.800;9.534;2022-10-16T03:47:55;3.72;;;1.65;;
63320;SDS011;49449;48.800;9.534;2022-10-16T03:50:22;1.98;;;1.77;;
63320;SDS011;49449;48.800;9.534;2022-10-16T03:52:51;2.33;;;1.60;;
63320;SDS011;49449;48.800;9.534;2022-10-16T03:55:19;2.88;;;1.80;;
63320;SDS011;49449;48.800;9.534;2022-10-16T03:57:47;1.95;;;1.75;;
63320;SDS011;49449;48.800;9.534;2022-10-16T04:00:14;3.25;;;1.48;;
63320;SDS011;49449;48.800;9.534;2022-10-16T04:02:43;3.00;;;1.90;;
63320;SDS011;49449;48.800;9.534;2022-10-16T04:05:11;1.60;;;1.40;;
63320;SDS011;49449;48.800;9.534;2022-10-16T04:07:39;2.22;;;1.48;;
63320;SDS011;49449;48.800;9.534;2022-10-16T04:10:08;1.25;;;1.20;;
63320;SDS011;49449;48.800;9.534;2022-10-16T04:12:38;2.20;;;2.05;;
63320;SDS011;49449;48.800;9.534;2022-10-16T04:15:06;2.63;;;1.77;;
63320;SDS011;49449;48.800;9.534;2022-10-16T04:17:35;2.33;;;1.60;;
63320;SDS011;49449;48.800;9.534;2022-10-16T04:20:03;2.88;;;1.58;;
63320;SDS011;49449;48.800;9.534;2022-10-16T04:22:31;2.15;;;1.70;;
63320;SDS011;49449;48.800;9.534;2022-10-16T04:24:59;2.80;;;1.83;;
63320;SDS011;49449;48.800;9.534;2022-10-16T04:27:28;1.85;;;1.75;;
63320;SDS011;49449;48.800;9.534;2022-10-16T04:29:57;3.05;;;2.20;;
63320;SDS011;49449;48.800;9.534;2022-10-16T04:32:25;3.72;;;2.33;;
63320;SDS011;49449;48.800;9.534;2022-10-16T04:34:53;2.60;;;2.40;;
63320;SDS011;49449;48.800;9.534;2022-10-16T04:37:23;2.38;;;2.17;;
63320;SDS011;49449;48.800;9.534;2022-10-16T04:39:51;3.25;;;1.88;;
63320;SDS011;49449;48.800;9.534;2022-10-16T04:42:18;2.80;;;1.98;;
63320;SDS011;49449;48.800;9.534;2022-10-16T04:44:48;2.58;;;2.20;;
63320;SDS011;49449;48.800;9.534;2022-10-16T04:47:18;2.90;;;1.90;;
63320;SDS011;49449;48.800;9.534;2022-10-16T04:49:46;3.63;;;1.80;;
63320;SDS011;49449;48.800;9.534;2022-10-16T04:52:13;4.13;;;2.40;;
63320;SDS011;49449;48.800;9.534;2022-10-16T04:54:41;3.88;;;1.77;;
63320;SDS011;49449;48.800;9.534;2022-10-16T04:57:11;3.25;;;2.95;;
63320;SDS011;49449;48.800;9.534;2022-10-16T04:59:39;7.30;;;4.10;;
63320;SDS011;49449;48.800;9.534;2022-10-16T05:02:08;4.38;;;3.50;;
63320;SDS011;49449;48.800;9.534;2022-10-16T05:04:35;5.00;;;3.13;;
63320;SDS011;49449;48.800;9.534;2022-10-16T05:07:03;2.33;;;2.13;;
63320;SDS011;49449;48.800;9.534;2022-10-16T05:09:31;4.38;;;2.60;;
63320;SDS011;49449;48.800;9.534;2022-10-16T05:11:58;2.60;;;2.33;;
63320;SDS011;49449;48.800;9.534;2022-10-16T05:14:29;2.85;;;2.58;;
63320;SDS011;49449;48.800;9.534;2022-10-16T05:16:57;2.70;;;2.50;;
63320;SDS011;49449;48.800;9.534;2022-10-16T05:19:27;3.70;;;2.80;;
63320;SDS011;49449;48.800;9.534;2022-10-16T05:21:55;4.03;;;2.42;;
63320;SDS011;49449;48.800;9.534;2022-10-16T05:24:23;3.97;;;2.10;;
63320;SDS011;49449;48.800;9.534;2022-10-16T05:26:50;3.75;;;2.78;;
63320;SDS011;49449;48.800;9.534;2022-10-16T05:29:18;4.43;;;2.58;;
63320;SDS011;49449;48.800;9.534;2022-10-16T05:31:46;2.80;;;2.50;;
63320;SDS011;49449;48.800;9.534;2022-10-16T05:34:14;4.57;;;2.13;;
63320;SDS011;49449;48.800;9.534;2022-10-16T05:36:43;3.03;;;2.42;;
63320;SDS011;49449;48.800;9.534;2022-10-16T05:39:11;3.30;;;2.30;;
63320;SDS011;49449;48.800;9.534;2022-10-16T05:41:39;3.83;;;2.28;;
63320;SDS011;49449;48.800;9.534;2022-10-16T05:44:06;8.20;;;2.50;;
63320;SDS011;49449;48.800;9.534;2022-10-16T05:46:34;3.55;;;1.98;;
63320;SDS011;49449;48.800;9.534;2022-10-16T05:49:02;2.40;;;2.30;;
63320;SDS011;49449;48.800;9.534;2022-10-16T05:51:30;3.05;;;2.50;;
63320;SDS011;49449;48.800;9.534;2022-10-16T05:53:59;2.75;;;1.98;;
63320;SDS011;49449;48.800;9.534;2022-10-16T05:56:27;4.72;;;2.78;;
63320;SDS011;49449;48.800;9.534;2022-10-16T05:58:54;3.00;;;2.30;;
63320;SDS011;49449;48.800;9.534;2022-10-16T06:01:22;3.15;;;2.85;;
63320;SDS011;49449;48.800;9.534;2022-10-16T06:03:50;4.57;;;2.78;;
63320;SDS011;49449;48.800;9.534;2022-10-16T06:06:19;2.08;;;1.98;;
63320;SDS011;49449;48.800;9.534;2022-10-16T06:08:49;2.55;;;2.35;;
63320;SDS011;49449;48.800;9.534;2022-10-16T06:11:19;2.67;;;2.33;;
63320;SDS011;49449;48.800;9.534;2022-10-16T06:13:48;3.33;;;2.00;;
63320;SDS011;49449;48.800;9.534;2022-10-16T06:16:17;2.53;;;2.20;;
63320;SDS011;49449;48.800;9.534;2022-10-16T06:18:45;2.53;;;1.90;;
63320;SDS011;49449;48.800;9.534;2022-10-16T06:21:14;2.95;;;2.50;;
63320;SDS011;49449;48.800;9.534;2022-10-16T06:23:44;3.33;;;2.63;;
63320;SDS011;49449;48.800;9.534;2022-10-16T06:26:13;8.15;;;3.03;;
63320;SDS011;49449;48.800;9.534;2022-10-16T06:28:44;3.97;;;2.30;;
63320;SDS011;49449;48.800;9.534;2022-10-16T06:31:12;3.45;;;2.42;;
63320;SDS011;49449;48.800;9.534;2022-10-16T06:33:41;3.25;;;2.10;;
63320;SDS011;49449;48.800;9.534;2022-10-16T06:36:09;2.35;;;2.03;;
63320;SDS011;49449;48.800;9.534;2022-10-16T06:38:39;2.13;;;1.95;;
63320;SDS011;49449;48.800;9.534;2022-10-16T06:41:08;4.18;;;2.05;;
63320;SDS011;49449;48.800;9.534;2022-10-16T06:43:38;3.85;;;2.20;;
63320;SDS011;49449;48.800;9.534;2022-10-16T06:46:09;3.55;;;2.33;;
63320;SDS011;49449;48.800;9.534;2022-10-16T06:48:38;4.28;;;3.63;;
63320;SDS011;49449;48.800;9.534;2022-10-16T06:51:06;5.25;;;3.65;;
63320;SDS011;49449;48.800;9.534;2022-10-16T06:53:38;3.33;;;2.58;;
63320;SDS011;49449;48.800;9.534;2022-10-16T06:56:14;2.55;;;1.80;;
63320;SDS011;49449;48.800;9.534;2022-10-16T06:58:43;2.15;;;2.00;;
63320;SDS011;49449;48.800;9.534;2022-10-16T07:01:13;2.85;;;1.98;;
63320;SDS011;49449;48.800;9.534;2022-10-16T07:03:42;4.72;;;1.67;;
63320;SDS011;49449;48.800;9.534;2022-10-16T07:06:12;4.55;;;1.92;;
63320;SDS011;49449;48.800;9.534;2022-10-16T07:08:42;2.65;;;1.48;;
63320;SDS011;49449;48.800;9.534;2022-10-16T07:11:11;2.25;;;2.00;;
63320;SDS011;49449;48.800;9.534;2022-10-16T07:13:41;2.50;;;2.08;;
63320;SDS011;49449;48.800;9.534;2022-10-16T07:16:13;2.42;;;1.70;;
63320;SDS011;49449;48.800;9.534;2022-10-16T07:18:42;3.17;;;2.28;;
63320;SDS011;49449;48.800;9.534;2022-10-16T07:21:13;1.80;;;1.70;;
63320;SDS011;49449;48.800;9.534;2022-10-16T07:23:42;1.80;;;1.70;;
63320;SDS011;49449;48.800;9.534;2022-10-16T07:26:10;2.65;;;1.40;;
63320;SDS011;49449;48.800;9.534;2022-10-16T07:28:38;1.77;;;1.67;;
63320;SDS011;49449;48.800;9.534;2022-10-16T07:31:09;3.42;;;1.77;;
63320;SDS011;49449;48.800;9.534;2022-10-16T07:33:42;3.15;;;1.63;;
63320;SDS011;49449;48.800;9.534;2022-10-16T07:36:11;2.00;;;1.63;;
63320;SDS011;49449;48.800;9.534;2022-10-16T07:38:41;1.95;;;1.40;;
63320;SDS011;49449;48.800;9.534;2022-10-16T07:41:10;2.63;;;1.73;;
63320;SDS011;49449;48.800;9.534;2022-10-16T07:43:39;4.70;;;2.22;;
63320;SDS011;49449;48.800;9.534;2022-10-16T07:46:07;4.35;;;2.10;;
63320;SDS011;49449;48.800;9.534;2022-10-16T07:48:35;3.13;;;1.88;;
63320;SDS011;49449;48.800;9.534;2022-10-16T07:51:05;2.90;;;2.05;;
63320;SDS011;49449;48.800;9.534;2022-10-16T07:53:34;2.05;;;1.90;;
63320;SDS011;49449;48.800;9.534;2022-10-16T07:56:03;1.98;;;1.88;;
63320;SDS011;49449;48.800;9.534;2022-10-16T07:58:32;2.17;;;1.98;;
63320;SDS011;49449;48.800;9.534;2022-10-16T08:01:03;2.25;;;2.05;;
63320;SDS011;49449;48.800;9.534;2022-10-16T08:03:32;1.98;;;1.88;;
63320;SDS011;49449;48.800;9.534;2022-10-16T08:06:01;2.10;;;1.95;;
63320;SDS011;49449;48.800;9.534;2022-10-16T08:08:30;2.33;;;1.80;;
63320;SDS011;49449;48.800;9.534;2022-10-16T08:10:58;4.20;;;2.40;;
63320;SDS011;49449;48.800;9.534;2022-10-16T08:13:26;2.47;;;2.10;;
63320;SDS011;49449;48.800;9.534;2022-10-16T08:15:54;2.20;;;2.00;;
63320;SDS011;49449;48.800;9.534;2022-10-16T08:18:22;2.53;;;2.15;;
63320;SDS011;49449;48.800;9.534;2022-10-16T08:20:54;3.92;;;1.98;;
63320;SDS011;49449;48.800;9.534;2022-10-16T08:23:25;2.53;;;1.90;;
63320;SDS011;49449;48.800;9.534;2022-10-16T08:25:56;3.13;;;2.28;;
63320;SDS011;49449;48.800;9.534;2022-10-16T08:28:29;3.75;;;2.60;;
63320;SDS011;49449;48.800;9.534;2022-10-16T08:31:04;2.90;;;2.70;;
63320;SDS011;49449;48.800;9.534;2022-10-16T08:33:33;2.80;;;2.33;;
63320;SDS011;49449;48.800;9.534;2022-10-16T08:36:03;3.53;;;2.05;;
63320;SDS011;49449;48.800;9.534;2022-10-16T08:38:32;3.97;;;2.20;;
63320;SDS011;49449;48.800;9.534;2022-10-16T08:41:13;2.17;;;1.65;;
63320;SDS011;49449;48.800;9.534;2022-10-16T08:43:55;1.67;;;1.58;;
63320;SDS011;49449;48.800;9.534;2022-10-16T08:46:39;4.03;;;2.22;;
63320;SDS011;49449;48.800;9.534;2022-10-16T08:49:17;2.95;;;2.30;;
63320;SDS011;49449;48.800;9.534;2022-10-16T08:51:48;3.33;;;2.70;;
63320;SDS011;49449;48.800;9.534;2022-10-16T08:54:22;4.57;;;2.17;;
63320;SDS011;49449;48.800;9.534;2022-10-16T08:57:07;3.83;;;2.67;;
63320;SDS011;49449;48.800;9.534;2022-10-16T08:59:37;3.05;;;2.53;;
63320;SDS011;49449;48.800;9.534;2022-10-16T09:02:13;2.72;;;2.20;;
63320;SDS011;49449;48.800;9.534;2022-10-16T09:04:54;2.60;;;2.00;;
63320;SDS011;49449;48.800;9.534;2022-10-16T09:07:32;2.22;;;2.03;;
63320;SDS011;49449;48.800;9.534;2022-10-16T09:10:18;1.98;;;1.88;;
63320;SDS011;49449;48.800;9.534;2022-10-16T09:13:00;2.92;;;1.65;;
63320;SDS011;49449;48.800;9.534;2022-10-16T09:15:39;2.47;;;2.20;;
63320;SDS011;49449;48.800;9.534;2022-10-16T09:18:12;1.65;;;1.52;;
63320;SDS011;49449;48.800;9.534;2022-10-16T09:20:49;1.88;;;1.52;;
63320;SDS011;49449;48.800;9.534;2022-10-16T09:23:22;1.77;;;1.50;;
63320;SDS011;49449;48.800;9.534;2022-10-16T09:25:55;2.97;;;2.30;;
63320;SDS011;49449;48.800;9.534;2022-10-16T09:28:28;4.07;;;1.95;;
63320;SDS011;49449;48.800;9.534;2022-10-16T09:30:58;2.35;;;1.80;;
63320;SDS011;49449;48.800;9.534;2022-10-16T09:33:32;2.28;;;1.75;;
63320;SDS011;49449;48.800;9.534;2022-10-16T09:36:08;2.22;;;2.03;;
63320;SDS011;49449;48.800;9.534;2022-10-16T09:38:46;1.90;;;1.80;;
63320;SDS011;49449;48.800;9.534;2022-10-16T09:41:17;2.33;;;1.90;;
63320;SDS011;49449;48.800;9.534;2022-10-16T09:43:49;2.40;;;2.20;;
63320;SDS011;49449;48.800;9.534;2022-10-16T09:46:22;1.65;;;1.52;;
63320;SDS011;49449;48.800;9.534;2022-10-16T09:48:56;2.65;;;2.00;;
63320;SDS011;49449;48.800;9.534;2022-10-16T09:51:26;2.42;;;2.22;;
63320;SDS011;49449;48.800;9.534;2022-10-16T09:53:57;5.95;;;2.45;;
63320;SDS011;49449;48.800;9.534;2022-10-16T09:56:28;2.13;;;2.03;;
63320;SDS011;49449;48.800;9.534;2022-10-16T09:59:00;3.10;;;2.30;;
63320;SDS011;49449;48.800;9.534;2022-10-16T10:01:31;2.50;;;2.30;;
63320;SDS011;49449;48.800;9.534;2022-10-16T10:04:04;3.92;;;2.35;;
63320;SDS011;49449;48.800;9.534;2022-10-16T10:06:34;2.17;;;2.00;;
63320;SDS011;49449;48.800;9.534;2022-10-16T10:09:06;2.55;;;2.25;;
63320;SDS011;49449;48.800;9.534;2022-10-16T10:11:48;2.88;;;2.25;;
63320;SDS011;49449;48.800;9.534;2022-10-16T10:14:26;2.45;;;2.25;;
63320;SDS011;49449;48.800;9.534;2022-10-16T10:17:11;2.65;;;2.00;;
63320;SDS011;49449;48.800;9.534;2022-10-16T10:19:46;3.13;;;1.90;;
63320;SDS011;49449;48.800;9.534;2022-10-16T10:22:27;2.63;;;2.17;;
63320;SDS011;49449;48.800;9.534;2022-10-16T10:25:10;2.30;;;2.10;;
63320;SDS011;49449;48.800;9.534;2022-10-16T10:27:52;2.40;;;1.88;;
63320;SDS011;49449;48.800;9.534;2022-10-16T10:30:40;3.20;;;1.73;;
63320;SDS011;49449;48.800;9.534;2022-10-16T10:33:17;2.55;;;2.10;;
63320;SDS011;49449;48.800;9.534;2022-10-16T10:35:57;2.45;;;2.25;;
63320;SDS011;49449;48.800;9.534;2022-10-16T10:38:46;2.58;;;2.00;;
63320;SDS011;49449;48.800;9.534;2022-10-16T10:44:33;3.58;;;1.95;;
63320;SDS011;49449;48.800;9.534;2022-10-16T10:47:13;2.35;;;2.15;;
63320;SDS011;49449;48.800;9.534;2022-10-16T10:49:53;2.03;;;1.92;;
63320;SDS011;49449;48.800;9.534;2022-10-16T10:52:33;1.58;;;1.48;;
63320;SDS011;49449;48.800;9.534;2022-10-16T10:55:21;1.27;;;1.20;;
63320;SDS011;49449;48.800;9.534;2022-10-16T10:58:03;3.67;;;1.80;;
63320;SDS011;49449;48.800;9.534;2022-10-16T11:00:48;2.30;;;1.60;;
63320;SDS011;49449;48.800;9.534;2022-10-16T11:03:31;2.65;;;1.70;;
63320;SDS011;49449;48.800;9.534;2022-10-16T11:06:10;2.42;;;1.60;;
63320;SDS011;49449;48.800;9.534;2022-10-16T11:08:45;2.30;;;1.58;;
63320;SDS011;49449;48.800;9.534;2022-10-16T11:11:18;2.38;;;1.58;;
63320;SDS011;49449;48.800;9.534;2022-10-16T11:13:51;3.50;;;1.90;;
63320;SDS011;49449;48.800;9.534;2022-10-16T11:16:26;1.90;;;1.50;;
63320;SDS011;49449;48.800;9.534;2022-10-16T11:18:58;1.80;;;1.70;;
63320;SDS011;49449;48.800;9.534;2022-10-16T11:21:31;6.88;;;1.65;;
63320;SDS011;49449;48.800;9.534;2022-10-16T11:24:09;3.15;;;2.17;;
63320;SDS011;49449;48.800;9.534;2022-10-16T11:26:44;3.33;;;2.05;;
63320;SDS011;49449;48.800;9.534;2022-10-16T11:29:16;3.13;;;2.03;;
63320;SDS011;49449;48.800;9.534;2022-10-16T11:31:51;2.05;;;1.85;;
63320;SDS011;49449;48.800;9.534;2022-10-16T11:34:27;3.40;;;2.03;;
63320;SDS011;49449;48.800;9.534;2022-10-16T11:37:02;2.60;;;1.73;;
63320;SDS011;49449;48.800;9.534;2022-10-16T11:39:36;1.35;;;1.25;;
63320;SDS011;49449;48.800;9.534;2022-10-16T11:42:09;2.42;;;1.80;;
63320;SDS011;49449;48.800;9.534;2022-10-16T11:44:42;1.75;;;1.40;;
63320;SDS011;49449;48.800;9.534;2022-10-16T11:47:21;2.33;;;1.50;;
63320;SDS011;49449;48.800;9.534;2022-10-16T11:52:44;2.08;;;1.80;;
63320;SDS011;49449;48.800;9.534;2022-10-16T11:55:20;3.03;;;1.73;;
63320;SDS011;49449;48.800;9.534;2022-10-16T11:57:54;2.67;;;1.45;;
63320;SDS011;49449;48.800;9.534;2022-10-16T12:00:37;1.70;;;1.60;;
63320;SDS011;49449;48.800;9.534;2022-10-16T12:03:19;1.30;;;1.30;;
63320;SDS011;49449;48.800;9.534;2022-10-16T12:06:02;1.60;;;1.50;;
63320;SDS011;49449;48.800;9.534;2022-10-16T12:08:42;1.98;;;1.77;;
63320;SDS011;49449;48.800;9.534;2022-10-16T12:11:32;1.55;;;1.48;;
63320;SDS011;49449;48.800;9.534;2022-10-16T12:14:05;3.33;;;1.70;;
63320;SDS011;49449;48.800;9.534;2022-10-16T12:16:51;1.92;;;1.40;;
63320;SDS011;49449;48.800;9.534;2022-10-16T12:19:28;1.52;;;1.42;;
63320;SDS011;49449;48.800;9.534;2022-10-16T12:21:58;1.60;;;1.50;;
63320;SDS011;49449;48.800;9.534;2022-10-16T12:24:31;1.52;;;1.42;;
63320;SDS011;49449;48.800;9.534;2022-10-16T12:27:02;1.88;;;1.50;;
63320;SDS011;49449;48.800;9.534;2022-10-16T12:29:35;1.30;;;1.30;;
63320;SDS011;49449;48.800;9.534;2022-10-16T12:32:06;2.97;;;1.75;;
63320;SDS011;49449;48.800;9.534;2022-10-16T12:35:16;1.38;;;1.20;;
63320;SDS011;49449;48.800;9.534;2022-10-16T12:37:47;1.60;;;1.50;;
63320;SDS011;49449;48.800;9.534;2022-10-16T12:40:23;1.70;;;1.60;;
63320;SDS011;49449;48.800;9.534;2022-10-16T12:42:55;3.63;;;1.40;;
63320;SDS011;49449;48.800;9.534;2022-10-16T12:45:27;1.60;;;1.50;;
63320;SDS011;49449;48.800;9.534;2022-10-16T12:47:57;2.20;;;1.17;;
63320;SDS011;49449;48.800;9.534;2022-10-16T12:50:29;1.40;;;1.40;;
63320;SDS011;49449;48.800;9.534;2022-10-16T12:53:00;1.83;;;1.70;;
63320;SDS011;49449;48.800;9.534;2022-10-16T12:55:32;2.55;;;1.70;;
63320;SDS011;49449;48.800;9.534;2022-10-16T13:01:07;1.38;;;1.27;;
63320;SDS011;49449;48.800;9.534;2022-10-16T13:03:49;2.33;;;1.48;;
63320;SDS011;49449;48.800;9.534;2022-10-16T13:06:37;2.88;;;1.50;;
63320;SDS011;49449;48.800;9.534;2022-10-16T13:09:21;2.78;;;1.35;;
63320;SDS011;49449;48.800;9.534;2022-10-16T13:12:02;3.97;;;1.65;;
63320;SDS011;49449;48.800;9.534;2022-10-16T13:14:50;2.65;;;1.50;;
63320;SDS011;49449;48.800;9.534;2022-10-16T13:17:30;1.60;;;1.50;;
63320;SDS011;49449;48.800;9.534;2022-10-16T13:20:12;1.95;;;1.55;;
63320;SDS011;49449;48.800;9.534;2022-10-16T13:22:48;3.20;;;1.90;;
63320;SDS011;49449;48.800;9.534;2022-10-16T13:30:32;2.65;;;1.80;;
63320;SDS011;49449;48.800;9.534;2022-10-16T13:33:06;1.73;;;1.55;;
63320;SDS011;49449;48.800;9.534;2022-10-16T13:35:47;2.20;;;1.90;;
63320;SDS011;49449;48.800;9.534;2022-10-16T13:38:17;3.55;;;1.98;;
63320;SDS011;49449;48.800;9.534;2022-10-16T13:40:51;3.08;;;1.80;;
63320;SDS011;49449;48.800;9.534;2022-10-16T13:43:22;1.92;;;1.83;;
63320;SDS011;49449;48.800;9.534;2022-10-16T13:45:54;4.38;;;1.90;;
63320;SDS011;49449;48.800;9.534;2022-10-16T13:48:24;4.50;;;2.10;;
63320;SDS011;49449;48.800;9.534;2022-10-16T13:50:59;1.80;;;1.70;;
63320;SDS011;49449;48.800;9.534;2022-10-16T13:53:29;1.98;;;1.80;;
63320;SDS011;49449;48.800;9.534;2022-10-16T13:56:00;1.70;;;1.60;;
63320;SDS011;49449;48.800;9.534;2022-10-16T13:58:30;1.88;;;1.60;;
63320;SDS011;49449;48.800;9.534;2022-10-16T14:00:59;3.42;;;1.88;;
63320;SDS011;49449;48.800;9.534;2022-10-16T14:03:28;2.67;;;1.45;;
63320;SDS011;49449;48.800;9.534;2022-10-16T14:06:03;1.73;;;1.63;;
63320;SDS011;49449;48.800;9.534;2022-10-16T14:08:40;1.70;;;1.60;;
63320;SDS011;49449;48.800;9.534;2022-10-16T14:11:22;1.95;;;1.38;;
63320;SDS011;49449;48.800;9.534;2022-10-16T14:13:51;1.85;;;1.50;;
63320;SDS011;49449;48.800;9.534;2022-10-16T14:16:21;3.35;;;1.70;;
63320;SDS011;49449;48.800;9.534;2022-10-16T14:18:53;1.85;;;1.65;;
63320;SDS011;49449;48.800;9.534;2022-10-16T14:21:25;1.85;;;1.75;;
63320;SDS011;49449;48.800;9.534;2022-10-16T14:23:54;2.63;;;1.60;;
63320;SDS011;49449;48.800;9.534;2022-10-16T14:26:23;2.08;;;1.52;;
63320;SDS011;49449;48.800;9.534;2022-10-16T14:29:01;1.55;;;1.45;;
63320;SDS011;49449;48.800;9.534;2022-10-16T14:31:42;3.65;;;1.70;;
63320;SDS011;49449;48.800;9.534;2022-10-16T14:34:23;4.53;;;1.92;;
63320;SDS011;49449;48.800;9.534;2022-10-16T14:36:56;2.35;;;1.90;;
63320;SDS011;49449;48.800;9.534;2022-10-16T14:39:27;3.60;;;1.90;;
63320;SDS011;49449;48.800;9.534;2022-10-16T14:41:56;4.78;;;2.15;;
63320;SDS011;49449;48.800;9.534;2022-10-16T14:44:29;10.75;;;2.15;;
63320;SDS011;49449;48.800;9.534;2022-10-16T14:47:06;6.97;;;2.00;;
63320;SDS011;49449;48.800;9.534;2022-10-16T14:49:36;3.83;;;1.52;;
63320;SDS011;49449;48.800;9.534;2022-10-16T14:52:07;4.72;;;2.47;;
63320;SDS011;49449;48.800;9.534;2022-10-16T14:54:37;2.58;;;2.10;;
63320;SDS011;49449;48.800;9.534;2022-10-16T14:57:12;4.07;;;1.77;;
63320;SDS011;49449;48.800;9.534;2022-10-16T14:59:46;4.75;;;1.90;;
63320;SDS011;49449;48.800;9.534;2022-10-16T15:02:28;2.97;;;1.65;;
63320;SDS011;49449;48.800;9.534;2022-10-16T15:05:10;3.08;;;1.83;;
63320;SDS011;49449;48.800;9.534;2022-10-16T15:07:40;3.08;;;2.20;;
63320;SDS011;49449;48.800;9.534;2022-10-16T15:10:09;3.55;;;2.20;;
63320;SDS011;49449;48.800;9.534;2022-10-16T15:12:45;3.05;;;1.60;;
63320;SDS011;49449;48.800;9.534;2022-10-16T15:15:31;5.15;;;2.10;;
63320;SDS011;49449;48.800;9.534;2022-10-16T15:18:11;2.67;;;1.90;;
63320;SDS011;49449;48.800;9.534;2022-10-16T15:20:41;3.20;;;2.00;;
63320;SDS011;49449;48.800;9.534;2022-10-16T15:23:12;3.05;;;1.92;;
63320;SDS011;49449;48.800;9.534;2022-10-16T15:25:44;1.63;;;1.52;;
63320;SDS011;49449;48.800;9.534;2022-10-16T15:28:26;2.92;;;1.40;;
63320;SDS011;49449;48.800;9.534;2022-10-16T15:31:00;4.55;;;2.30;;
63320;SDS011;49449;48.800;9.534;2022-10-16T15:33:45;4.00;;;1.90;;
63320;SDS011;49449;48.800;9.534;2022-10-16T15:36:26;5.97;;;1.80;;
63320;SDS011;49449;48.800;9.534;2022-10-16T15:38:58;5.40;;;2.30;;
63320;SDS011;49449;48.800;9.534;2022-10-16T15:41:33;5.95;;;2.10;;
63320;SDS011;49449;48.800;9.534;2022-10-16T15:44:14;8.00;;;2.42;;
63320;SDS011;49449;48.800;9.534;2022-10-16T15:46:42;3.90;;;2.20;;